createdAt,value
2023-05-21T00:32:14.008Z,14.40
2023-05-21T00:34:31.718Z,14.44
2023-05-21T00:45:31.051Z,14.39
2023-05-21T02:47:49.759Z,13.56
2023-05-21T03:21:30.681Z,13.18
2023-05-21T04:23:08.213Z,13.33
2023-05-21T05:10:38.287Z,13.46
2023-05-21T05:13:19.440Z,13.56
2023-05-21T05:15:47.554Z,13.58
2023-05-21T05:46:48.028Z,13.64
2023-05-21T07:29:11.910Z,14.45
2023-05-21T13:13:24.064Z,21.50
2023-05-21T13:15:50.454Z,21.46
2023-05-21T13:18:16.899Z,22.08
2023-05-21T13:20:43.378Z,22.17
2023-05-21T13:23:11.455Z,21.77
2023-05-21T13:25:38.284Z,21.83
2023-05-21T13:28:04.650Z,21.94
2023-05-21T13:30:31.001Z,21.93
2023-05-21T13:32:57.440Z,21.84
2023-05-21T13:35:23.856Z,21.69
2023-05-21T13:37:50.214Z,21.93
2023-05-21T13:40:16.716Z,22.04
2023-05-21T13:42:43.209Z,21.80
2023-05-21T13:45:09.552Z,21.78
2023-05-21T13:47:37.581Z,21.93
2023-05-21T13:50:06.406Z,22.14
2023-05-21T13:52:32.792Z,22.10
2023-05-21T13:54:59.131Z,22.02
2023-05-21T13:57:25.503Z,21.63
2023-05-21T13:59:51.843Z,21.99
2023-05-21T14:02:18.295Z,22.17
2023-05-21T14:04:44.709Z,22.00
2023-05-21T14:07:11.048Z,22.01
2023-05-21T14:09:37.396Z,22.30
2023-05-21T14:12:05.606Z,22.25
2023-05-21T14:14:32.656Z,22.01
2023-05-21T14:16:59.195Z,22.14
2023-05-21T14:19:25.908Z,21.93
2023-05-21T14:21:52.323Z,21.83
2023-05-21T14:24:18.670Z,22.08
2023-05-21T14:26:45.043Z,21.94
2023-05-21T14:29:11.391Z,22.07
2023-05-21T14:31:38.147Z,22.11
2023-05-21T14:34:04.574Z,21.85
2023-05-21T14:36:30.919Z,21.80
2023-05-21T14:38:57.425Z,21.93
2023-05-21T14:41:23.877Z,22.13
2023-05-21T14:43:50.227Z,22.09
2023-05-21T14:46:16.627Z,22.22
2023-05-21T14:48:43.109Z,22.15
2023-05-21T14:51:09.464Z,22.23
2023-05-21T14:53:35.806Z,22.12
2023-05-21T14:56:02.167Z,22.13
2023-05-21T14:58:28.529Z,22.05
2023-05-21T15:00:54.884Z,21.96
2023-05-21T15:03:21.374Z,22.16
2023-05-21T15:05:47.916Z,21.99
2023-05-21T15:08:14.270Z,22.02
2023-05-21T15:10:40.629Z,22.17
2023-05-21T15:13:06.964Z,22.06
2023-05-21T15:15:33.336Z,22.22
2023-05-21T15:17:59.732Z,22.41
2023-05-21T15:20:26.096Z,22.29
2023-05-21T15:22:56.874Z,22.13
2023-05-21T15:25:31.397Z,21.94
2023-05-21T15:27:57.745Z,21.95
2023-05-21T15:30:24.081Z,21.97
2023-05-21T15:32:50.436Z,22.03
2023-05-21T15:35:16.897Z,21.96
2023-05-21T15:37:43.337Z,21.91
2023-05-21T15:40:09.717Z,22.01
2023-05-21T15:42:36.050Z,21.87
2023-05-21T15:45:02.419Z,21.90
2023-05-21T15:47:28.858Z,22.01
2023-05-21T15:49:55.228Z,21.94
2023-05-21T15:52:21.568Z,21.88
2023-05-21T15:54:47.934Z,21.82
2023-05-21T15:57:14.266Z,22.09
2023-05-21T15:59:40.592Z,21.78
2023-05-21T16:02:06.944Z,21.92
2023-05-21T16:04:33.277Z,22.08
2023-05-21T16:06:59.628Z,21.98
2023-05-21T16:09:25.992Z,21.83
2023-05-21T16:11:52.349Z,21.85
2023-05-21T16:14:18.675Z,21.75
2023-05-21T16:16:45.074Z,21.80
2023-05-21T16:19:11.493Z,21.83
2023-05-21T16:21:37.861Z,21.83
2023-05-21T16:24:04.235Z,21.77
2023-05-21T16:26:30.609Z,21.75
2023-05-21T16:28:56.951Z,22.00
2023-05-21T16:31:23.381Z,21.90
2023-05-21T16:33:49.729Z,21.74
2023-05-21T16:36:17.933Z,21.71
2023-05-21T16:38:44.413Z,21.94
2023-05-21T16:41:10.769Z,21.92
2023-05-21T16:43:37.116Z,21.75
2023-05-21T16:46:03.521Z,21.59
2023-05-21T16:48:29.875Z,21.61
2023-05-21T16:50:56.221Z,21.64
2023-05-21T16:53:22.596Z,21.74
2023-05-21T16:55:48.972Z,21.74
2023-05-21T16:58:15.301Z,21.94
2023-05-21T17:00:41.697Z,21.76
2023-05-21T17:03:08.099Z,21.73
2023-05-21T17:05:34.741Z,21.67
2023-05-21T17:08:01.293Z,21.59
2023-05-21T17:10:27.631Z,21.57
2023-05-21T17:12:53.992Z,21.72
2023-05-21T17:15:20.372Z,21.77
2023-05-21T17:17:46.784Z,21.70
2023-05-21T17:20:13.160Z,21.62
2023-05-21T17:22:39.565Z,21.58
2023-05-21T17:25:05.932Z,21.55
2023-05-21T17:27:32.267Z,21.52
2023-05-21T17:29:58.622Z,21.52
2023-05-21T17:32:24.956Z,21.48
2023-05-21T17:34:51.363Z,21.47
2023-05-21T17:37:17.842Z,21.48
2023-05-21T17:39:44.179Z,21.44
2023-05-21T17:42:10.520Z,21.38
2023-05-21T17:44:36.902Z,21.41
2023-05-21T17:47:03.335Z,21.52
2023-05-21T17:49:29.781Z,21.38
2023-05-21T17:51:56.139Z,21.37
2023-05-21T17:54:22.495Z,21.30
2023-05-21T17:56:48.843Z,21.34
2023-05-21T17:59:15.207Z,21.26
2023-05-21T18:01:41.546Z,21.26
2023-05-21T18:04:07.950Z,21.42
2023-05-21T18:06:34.340Z,21.32
2023-05-21T18:09:00.708Z,21.24
2023-05-21T18:11:27.063Z,21.27
2023-05-21T18:13:53.436Z,21.15
2023-05-21T18:16:19.799Z,21.26
2023-05-21T18:18:46.184Z,21.21
2023-05-21T18:21:12.585Z,21.04
2023-05-21T18:23:38.931Z,21.23
2023-05-21T18:26:05.273Z,21.26
2023-05-21T18:28:31.633Z,21.28
2023-05-21T18:30:57.981Z,21.23
2023-05-21T18:33:24.315Z,21.23
2023-05-21T18:35:50.697Z,21.19
2023-05-21T18:38:17.047Z,21.18
2023-05-21T18:40:43.402Z,21.15
2023-05-21T18:43:09.842Z,21.19
2023-05-21T18:45:36.206Z,21.15
2023-05-21T18:48:02.588Z,21.05
2023-05-21T18:50:29.041Z,21.08
2023-05-21T18:52:55.380Z,21.00
2023-05-21T18:55:21.730Z,20.95
2023-05-21T18:57:48.098Z,21.03
2023-05-21T19:00:14.464Z,20.75
2023-05-21T19:02:40.918Z,20.73
2023-05-21T19:05:07.421Z,20.10
2023-05-21T19:07:33.830Z,20.42
2023-05-21T19:10:00.391Z,19.98
2023-05-21T19:12:26.812Z,19.90
2023-05-21T19:14:53.135Z,19.97
2023-05-21T19:17:19.495Z,20.27
2023-05-21T19:19:45.882Z,20.30
2023-05-21T19:22:12.222Z,20.30
2023-05-21T19:24:38.561Z,20.39
2023-05-21T19:27:04.901Z,20.09
2023-05-21T19:29:31.245Z,19.74
2023-05-21T19:31:57.582Z,19.00
2023-05-21T19:34:24.123Z,17.89
2023-05-21T19:36:53.739Z,17.71
2023-05-21T19:39:20.486Z,18.18
2023-05-21T19:41:46.863Z,18.29
2023-05-21T19:44:13.221Z,18.58
2023-05-21T19:46:39.572Z,18.52
2023-05-21T19:49:05.958Z,18.40
2023-05-21T19:51:32.324Z,18.27
2023-05-21T19:53:58.662Z,18.06
2023-05-21T19:56:25.013Z,18.18
2023-05-21T19:58:51.360Z,18.20
2023-05-21T20:01:17.750Z,18.12
2023-05-21T20:03:44.197Z,18.13
2023-05-21T20:06:10.533Z,17.79
2023-05-21T20:08:36.861Z,17.82
2023-05-21T20:11:03.219Z,18.12
2023-05-21T20:13:29.575Z,18.50
2023-05-21T20:15:55.911Z,18.24
2023-05-21T20:18:22.556Z,18.43
2023-05-21T20:20:48.914Z,18.05
2023-05-21T20:23:15.255Z,17.88
2023-05-21T20:25:41.616Z,17.98
2023-05-21T20:28:07.966Z,18.40
2023-05-21T20:30:34.330Z,18.42
2023-05-21T20:33:00.771Z,18.45
2023-05-21T20:35:27.154Z,18.56
2023-05-21T20:37:53.498Z,18.57
2023-05-21T20:40:19.873Z,18.33
2023-05-21T20:42:46.241Z,18.42
2023-05-21T20:45:12.589Z,18.34
2023-05-21T20:47:38.989Z,18.23
2023-05-21T20:50:05.385Z,18.35
2023-05-21T20:52:31.732Z,18.25
2023-05-21T20:54:58.123Z,18.13
2023-05-21T20:57:24.478Z,18.14
2023-05-21T20:59:50.814Z,18.23
2023-05-21T21:02:17.175Z,18.11
2023-05-21T21:04:43.517Z,18.10
2023-05-21T21:07:09.866Z,17.82
2023-05-21T21:09:36.220Z,17.71
2023-05-21T21:12:11.355Z,17.64
2023-05-21T21:14:48.501Z,18.07
2023-05-21T21:17:14.900Z,17.89
2023-05-21T21:19:41.247Z,17.90
2023-05-21T21:22:07.620Z,17.89
2023-05-21T21:24:33.967Z,17.92
2023-05-21T21:27:00.294Z,17.78
2023-05-21T21:29:26.725Z,17.74
2023-05-21T21:31:53.042Z,17.90
2023-05-21T21:34:19.364Z,17.75
2023-05-21T21:36:45.719Z,17.37
2023-05-21T21:39:12.048Z,17.37
2023-05-21T21:41:38.383Z,17.44
2023-05-21T21:44:04.799Z,17.47
2023-05-21T21:46:31.172Z,17.68
2023-05-21T21:48:57.549Z,17.56
2023-05-21T21:51:23.929Z,17.70
2023-05-21T21:53:50.279Z,17.50
2023-05-21T21:56:16.623Z,17.41
2023-05-21T21:58:43.307Z,17.58
2023-05-21T22:01:09.685Z,17.59
2023-05-21T22:03:36.068Z,17.61
2023-05-21T22:06:02.447Z,17.66
2023-05-21T22:08:28.803Z,17.84
2023-05-21T22:10:55.152Z,17.70
2023-05-21T22:13:21.525Z,17.71
2023-05-21T22:15:47.865Z,17.62
2023-05-21T22:18:15.682Z,17.54
2023-05-21T22:20:44.887Z,17.65
2023-05-21T22:23:11.236Z,17.51
2023-05-21T22:25:37.565Z,17.59
2023-05-21T22:28:03.948Z,17.48
2023-05-21T22:30:30.308Z,17.56
2023-05-21T22:32:56.695Z,17.41
2023-05-21T22:35:23.101Z,17.42
2023-05-21T22:37:49.442Z,17.39
2023-05-21T22:40:15.804Z,17.34
2023-05-21T22:42:42.156Z,17.30
2023-05-21T22:45:08.501Z,17.36
2023-05-21T22:47:34.836Z,17.18
2023-05-21T22:50:01.224Z,17.00
2023-05-21T22:52:27.603Z,17.12
2023-05-21T22:54:53.984Z,17.19
2023-05-21T22:57:20.386Z,16.84
2023-05-21T22:59:46.749Z,17.25
2023-05-21T23:02:13.233Z,17.22
2023-05-21T23:04:44.385Z,17.17
2023-05-21T23:07:11.105Z,17.04
2023-05-21T23:09:37.451Z,16.88
2023-05-21T23:12:03.834Z,16.73
2023-05-21T23:14:30.168Z,16.86
2023-05-21T23:16:56.498Z,16.91
2023-05-21T23:19:22.964Z,16.86
2023-05-21T23:21:49.419Z,16.90
2023-05-21T23:24:15.760Z,16.88
2023-05-21T23:26:42.127Z,16.98
2023-05-21T23:29:08.460Z,17.04
2023-05-21T23:31:34.835Z,17.06
2023-05-21T23:34:01.195Z,17.14
2023-05-21T23:36:27.536Z,17.05
2023-05-21T23:38:53.881Z,16.96
2023-05-21T23:41:20.236Z,17.14
2023-05-21T23:43:46.590Z,17.08
2023-05-21T23:46:12.947Z,17.08
2023-05-21T23:48:39.371Z,16.91
2023-05-21T23:51:05.721Z,16.78
2023-05-21T23:53:32.052Z,16.83
2023-05-21T23:55:58.397Z,16.84
2023-05-21T23:58:24.734Z,16.90
